sensor_id;sensor_type;location;lat;lon;timestamp;P1;durP1;ratioP1;P2;durP2;ratioP2
6775;SDS011;3425;51.376;5.222;2023-05-10T00:02:03;2.97;;;1.17;;
6775;SDS011;3425;51.376;5.222;2023-05-10T00:04:31;2.97;;;1.08;;
6775;SDS011;3425;51.376;5.222;2023-05-10T00:06:58;0.70;;;0.57;;
6775;SDS011;3425;51.376;5.222;2023-05-10T00:09:25;2.08;;;1.15;;
6775;SDS011;3425;51.376;5.222;2023-05-10T00:11:52;3.30;;;1.52;;
6775;SDS011;3425;51.376;5.222;2023-05-10T00:14:20;3.80;;;1.45;;
6775;SDS011;3425;51.376;5.222;2023-05-10T00:16:47;0.50;;;0.43;;
6775;SDS011;3425;51.376;5.222;2023-05-10T00:19:14;10.95;;;1.67;;
6775;SDS011;3425;51.376;5.222;2023-05-10T00:21:42;2.40;;;1.25;;
6775;SDS011;3425;51.376;5.222;2023-05-10T00:24:09;4.15;;;0.93;;
6775;SDS011;3425;51.376;5.222;2023-05-10T00:26:36;1.17;;;1.08;;
6775;SDS011;3425;51.376;5.222;2023-05-10T00:29:03;1.15;;;0.65;;
6775;SDS011;3425;51.376;5.222;2023-05-10T00:31:30;2.92;;;1.17;;
6775;SDS011;3425;51.376;5.222;2023-05-10T00:33:58;2.22;;;1.23;;
6775;SDS011;3425;51.376;5.222;2023-05-10T00:36:25;5.57;;;1.90;;
6775;SDS011;3425;51.376;5.222;2023-05-10T00:38:53;1.10;;;1.00;;
6775;SDS011;3425;51.376;5.222;2023-05-10T00:41:20;4.85;;;2.33;;
6775;SDS011;3425;51.376;5.222;2023-05-10T00:43:48;3.83;;;2.38;;
6775;SDS011;3425;51.376;5.222;2023-05-10T00:46:15;3.25;;;2.40;;
6775;SDS011;3425;51.376;5.222;2023-05-10T00:48:43;2.33;;;1.27;;
6775;SDS011;3425;51.376;5.222;2023-05-10T00:51:11;2.65;;;2.20;;
6775;SDS011;3425;51.376;5.222;2023-05-10T00:53:39;2.33;;;2.08;;
6775;SDS011;3425;51.376;5.222;2023-05-10T00:56:06;1.95;;;1.65;;
6775;SDS011;3425;51.376;5.222;2023-05-10T00:58:33;5.47;;;2.70;;
6775;SDS011;3425;51.376;5.222;2023-05-10T01:01:01;7.70;;;2.83;;
6775;SDS011;3425;51.376;5.222;2023-05-10T01:03:28;11.55;;;1.25;;
6775;SDS011;3425;51.376;5.222;2023-05-10T01:05:56;4.93;;;2.58;;
6775;SDS011;3425;51.376;5.222;2023-05-10T01:08:23;2.70;;;2.50;;
6775;SDS011;3425;51.376;5.222;2023-05-10T01:10:50;1.77;;;1.63;;
6775;SDS011;3425;51.376;5.222;2023-05-10T01:13:23;5.93;;;1.70;;
6775;SDS011;3425;51.376;5.222;2023-05-10T01:15:55;1.35;;;1.27;;
6775;SDS011;3425;51.376;5.222;2023-05-10T01:18:23;1.98;;;1.80;;
6775;SDS011;3425;51.376;5.222;2023-05-10T01:20:54;1.70;;;1.60;;
6775;SDS011;3425;51.376;5.222;2023-05-10T01:26:07;4.60;;;1.38;;
6775;SDS011;3425;51.376;5.222;2023-05-10T01:36:23;2.72;;;2.25;;
6775;SDS011;3425;51.376;5.222;2023-05-10T01:38:57;1.67;;;1.58;;
6775;SDS011;3425;51.376;5.222;2023-05-10T01:41:36;5.63;;;2.53;;
6775;SDS011;3425;51.376;5.222;2023-05-10T01:47:01;5.30;;;2.72;;
6775;SDS011;3425;51.376;5.222;2023-05-10T01:49:32;6.30;;;2.22;;
6775;SDS011;3425;51.376;5.222;2023-05-10T01:52:09;3.75;;;2.00;;
6775;SDS011;3425;51.376;5.222;2023-05-10T01:54:43;2.95;;;1.98;;
6775;SDS011;3425;51.376;5.222;2023-05-10T01:57:11;2.58;;;1.58;;
6775;SDS011;3425;51.376;5.222;2023-05-10T01:59:40;4.05;;;2.33;;
6775;SDS011;3425;51.376;5.222;2023-05-10T02:02:10;4.90;;;2.30;;
6775;SDS011;3425;51.376;5.222;2023-05-10T02:04:38;3.55;;;2.40;;
6775;SDS011;3425;51.376;5.222;2023-05-10T02:07:06;1.38;;;1.27;;
6775;SDS011;3425;51.376;5.222;2023-05-10T02:09:34;2.08;;;1.30;;
6775;SDS011;3425;51.376;5.222;2023-05-10T02:12:02;4.55;;;2.10;;
6775;SDS011;3425;51.376;5.222;2023-05-10T02:14:32;0.70;;;0.70;;
6775;SDS011;3425;51.376;5.222;2023-05-10T02:17:01;3.78;;;1.77;;
6775;SDS011;3425;51.376;5.222;2023-05-10T02:19:29;4.10;;;1.67;;
6775;SDS011;3425;51.376;5.222;2023-05-10T02:21:57;1.95;;;1.83;;
6775;SDS011;3425;51.376;5.222;2023-05-10T02:24:25;8.63;;;2.20;;
6775;SDS011;3425;51.376;5.222;2023-05-10T02:26:54;3.60;;;3.15;;
6775;SDS011;3425;51.376;5.222;2023-05-10T02:29:24;10.82;;;2.63;;
6775;SDS011;3425;51.376;5.222;2023-05-10T02:31:52;1.42;;;0.93;;
6775;SDS011;3425;51.376;5.222;2023-05-10T02:34:21;2.88;;;1.85;;
6775;SDS011;3425;51.376;5.222;2023-05-10T02:36:48;14.48;;;2.80;;
6775;SDS011;3425;51.376;5.222;2023-05-10T02:39:16;4.18;;;1.38;;
6775;SDS011;3425;51.376;5.222;2023-05-10T02:41:44;3.90;;;1.85;;
6775;SDS011;3425;51.376;5.222;2023-05-10T02:44:13;1.08;;;1.02;;
6775;SDS011;3425;51.376;5.222;2023-05-10T02:46:41;8.57;;;1.52;;
6775;SDS011;3425;51.376;5.222;2023-05-10T02:49:09;2.13;;;1.70;;
6775;SDS011;3425;51.376;5.222;2023-05-10T02:51:37;1.60;;;1.50;;
6775;SDS011;3425;51.376;5.222;2023-05-10T02:54:07;4.40;;;3.28;;
6775;SDS011;3425;51.376;5.222;2023-05-10T02:56:36;4.25;;;2.40;;
6775;SDS011;3425;51.376;5.222;2023-05-10T02:59:05;1.63;;;1.17;;
6775;SDS011;3425;51.376;5.222;2023-05-10T03:01:33;1.15;;;0.90;;
6775;SDS011;3425;51.376;5.222;2023-05-10T03:04:00;4.15;;;1.45;;
6775;SDS011;3425;51.376;5.222;2023-05-10T03:06:28;2.47;;;1.73;;
6775;SDS011;3425;51.376;5.222;2023-05-10T03:08:55;4.85;;;1.98;;
6775;SDS011;3425;51.376;5.222;2023-05-10T03:11:28;5.53;;;2.88;;
6775;SDS011;3425;51.376;5.222;2023-05-10T03:16:52;2.63;;;2.08;;
6775;SDS011;3425;51.376;5.222;2023-05-10T03:19:38;2.55;;;1.35;;
6775;SDS011;3425;51.376;5.222;2023-05-10T03:22:08;3.03;;;2.75;;
6775;SDS011;3425;51.376;5.222;2023-05-10T03:24:37;1.75;;;1.50;;
6775;SDS011;3425;51.376;5.222;2023-05-10T03:27:06;5.65;;;2.88;;
6775;SDS011;3425;51.376;5.222;2023-05-10T03:29:34;7.07;;;3.38;;
6775;SDS011;3425;51.376;5.222;2023-05-10T03:32:03;2.90;;;2.40;;
6775;SDS011;3425;51.376;5.222;2023-05-10T03:34:30;1.73;;;1.48;;
6775;SDS011;3425;51.376;5.222;2023-05-10T03:36:57;6.50;;;2.78;;
6775;SDS011;3425;51.376;5.222;2023-05-10T03:39:25;5.63;;;2.47;;
6775;SDS011;3425;51.376;5.222;2023-05-10T03:41:52;3.88;;;2.42;;
6775;SDS011;3425;51.376;5.222;2023-05-10T03:44:19;7.13;;;2.97;;
6775;SDS011;3425;51.376;5.222;2023-05-10T03:46:46;5.13;;;2.10;;
6775;SDS011;3425;51.376;5.222;2023-05-10T03:49:14;3.92;;;3.13;;
6775;SDS011;3425;51.376;5.222;2023-05-10T03:51:41;3.80;;;2.90;;
6775;SDS011;3425;51.376;5.222;2023-05-10T03:54:08;13.88;;;4.20;;
6775;SDS011;3425;51.376;5.222;2023-05-10T03:56:35;7.18;;;3.05;;
6775;SDS011;3425;51.376;5.222;2023-05-10T03:59:02;8.40;;;3.15;;
6775;SDS011;3425;51.376;5.222;2023-05-10T04:01:33;3.15;;;2.65;;
6775;SDS011;3425;51.376;5.222;2023-05-10T04:04:01;4.72;;;3.00;;
6775;SDS011;3425;51.376;5.222;2023-05-10T04:06:28;5.53;;;3.72;;
6775;SDS011;3425;51.376;5.222;2023-05-10T04:08:55;3.22;;;2.40;;
6775;SDS011;3425;51.376;5.222;2023-05-10T04:11:25;6.32;;;3.13;;
6775;SDS011;3425;51.376;5.222;2023-05-10T04:13:53;4.07;;;2.15;;
6775;SDS011;3425;51.376;5.222;2023-05-10T04:16:20;9.70;;;3.50;;
6775;SDS011;3425;51.376;5.222;2023-05-10T04:18:47;8.05;;;3.70;;
6775;SDS011;3425;51.376;5.222;2023-05-10T04:21:14;3.65;;;2.20;;
6775;SDS011;3425;51.376;5.222;2023-05-10T04:23:41;6.20;;;3.08;;
6775;SDS011;3425;51.376;5.222;2023-05-10T04:26:09;12.18;;;3.13;;
6775;SDS011;3425;51.376;5.222;2023-05-10T04:28:36;7.75;;;2.83;;
6775;SDS011;3425;51.376;5.222;2023-05-10T04:31:08;5.65;;;1.80;;
6775;SDS011;3425;51.376;5.222;2023-05-10T04:33:36;3.30;;;3.00;;
6775;SDS011;3425;51.376;5.222;2023-05-10T04:36:03;2.85;;;2.22;;
6775;SDS011;3425;51.376;5.222;2023-05-10T04:38:30;1.63;;;1.50;;
6775;SDS011;3425;51.376;5.222;2023-05-10T04:41:04;2.90;;;1.73;;
6775;SDS011;3425;51.376;5.222;2023-05-10T04:43:32;3.83;;;2.10;;
6775;SDS011;3425;51.376;5.222;2023-05-10T04:45:59;2.10;;;1.42;;
6775;SDS011;3425;51.376;5.222;2023-05-10T04:48:26;3.80;;;1.60;;
6775;SDS011;3425;51.376;5.222;2023-05-10T04:50:54;3.30;;;2.65;;
6775;SDS011;3425;51.376;5.222;2023-05-10T04:53:21;1.83;;;1.65;;
6775;SDS011;3425;51.376;5.222;2023-05-10T04:55:48;3.85;;;1.15;;
6775;SDS011;3425;51.376;5.222;2023-05-10T04:58:15;1.52;;;1.35;;
6775;SDS011;3425;51.376;5.222;2023-05-10T05:00:42;1.88;;;1.75;;
6775;SDS011;3425;51.376;5.222;2023-05-10T05:03:10;10.65;;;2.35;;
6775;SDS011;3425;51.376;5.222;2023-05-10T05:05:38;1.65;;;1.50;;
6775;SDS011;3425;51.376;5.222;2023-05-10T05:08:05;3.38;;;2.17;;
6775;SDS011;3425;51.376;5.222;2023-05-10T05:10:32;4.32;;;2.92;;
6775;SDS011;3425;51.376;5.222;2023-05-10T05:12:59;3.63;;;1.40;;
6775;SDS011;3425;51.376;5.222;2023-05-10T05:15:26;2.30;;;1.02;;
6775;SDS011;3425;51.376;5.222;2023-05-10T05:17:53;2.70;;;1.67;;
6775;SDS011;3425;51.376;5.222;2023-05-10T05:20:21;4.85;;;2.33;;
6775;SDS011;3425;51.376;5.222;2023-05-10T05:22:48;2.05;;;1.67;;
6775;SDS011;3425;51.376;5.222;2023-05-10T05:25:16;5.15;;;2.63;;
6775;SDS011;3425;51.376;5.222;2023-05-10T05:27:43;3.47;;;2.00;;
6775;SDS011;3425;51.376;5.222;2023-05-10T05:30:10;2.05;;;1.63;;
6775;SDS011;3425;51.376;5.222;2023-05-10T05:32:38;4.78;;;2.60;;
6775;SDS011;3425;51.376;5.222;2023-05-10T05:35:06;3.65;;;1.38;;
6775;SDS011;3425;51.376;5.222;2023-05-10T05:37:33;1.58;;;1.48;;
6775;SDS011;3425;51.376;5.222;2023-05-10T05:40:01;6.00;;;2.63;;
6775;SDS011;3425;51.376;5.222;2023-05-10T05:42:28;4.15;;;2.97;;
6775;SDS011;3425;51.376;5.222;2023-05-10T05:44:56;3.33;;;1.98;;
6775;SDS011;3425;51.376;5.222;2023-05-10T05:47:23;2.85;;;1.85;;
6775;SDS011;3425;51.376;5.222;2023-05-10T05:49:50;4.15;;;1.27;;
6775;SDS011;3425;51.376;5.222;2023-05-10T05:52:17;1.00;;;0.88;;
6775;SDS011;3425;51.376;5.222;2023-05-10T05:54:45;8.65;;;3.25;;
6775;SDS011;3425;51.376;5.222;2023-05-10T05:57:12;1.88;;;1.23;;
6775;SDS011;3425;51.376;5.222;2023-05-10T05:59:39;4.07;;;2.25;;
6775;SDS011;3425;51.376;5.222;2023-05-10T06:02:10;3.90;;;2.20;;
6775;SDS011;3425;51.376;5.222;2023-05-10T06:04:37;3.75;;;1.00;;
6775;SDS011;3425;51.376;5.222;2023-05-10T06:07:04;5.78;;;1.73;;
6775;SDS011;3425;51.376;5.222;2023-05-10T06:09:31;2.92;;;1.33;;
6775;SDS011;3425;51.376;5.222;2023-05-10T06:11:59;4.68;;;1.48;;
6775;SDS011;3425;51.376;5.222;2023-05-10T06:14:26;7.72;;;1.67;;
6775;SDS011;3425;51.376;5.222;2023-05-10T06:16:53;2.90;;;2.35;;
6775;SDS011;3425;51.376;5.222;2023-05-10T06:19:21;3.35;;;1.55;;
6775;SDS011;3425;51.376;5.222;2023-05-10T06:21:48;0.77;;;0.77;;
6775;SDS011;3425;51.376;5.222;2023-05-10T06:24:18;3.78;;;1.83;;
6775;SDS011;3425;51.376;5.222;2023-05-10T06:26:46;7.43;;;1.52;;
6775;SDS011;3425;51.376;5.222;2023-05-10T06:29:13;12.77;;;1.92;;
6775;SDS011;3425;51.376;5.222;2023-05-10T06:31:41;2.10;;;1.85;;
6775;SDS011;3425;51.376;5.222;2023-05-10T06:34:08;1.60;;;1.15;;
6775;SDS011;3425;51.376;5.222;2023-05-10T06:36:37;0.85;;;0.85;;
6775;SDS011;3425;51.376;5.222;2023-05-10T06:39:04;1.02;;;0.93;;
6775;SDS011;3425;51.376;5.222;2023-05-10T06:41:32;2.10;;;0.77;;
6775;SDS011;3425;51.376;5.222;2023-05-10T06:43:59;2.28;;;1.70;;
6775;SDS011;3425;51.376;5.222;2023-05-10T06:46:26;1.88;;;1.63;;
6775;SDS011;3425;51.376;5.222;2023-05-10T06:48:53;2.42;;;1.75;;
6775;SDS011;3425;51.376;5.222;2023-05-10T06:51:20;2.10;;;1.52;;
6775;SDS011;3425;51.376;5.222;2023-05-10T06:53:47;1.30;;;1.02;;
6775;SDS011;3425;51.376;5.222;2023-05-10T06:56:15;1.00;;;0.85;;
6775;SDS011;3425;51.376;5.222;2023-05-10T06:58:42;1.45;;;1.35;;
6775;SDS011;3425;51.376;5.222;2023-05-10T07:01:09;6.43;;;2.10;;
6775;SDS011;3425;51.376;5.222;2023-05-10T07:03:36;0.30;;;0.30;;
6775;SDS011;3425;51.376;5.222;2023-05-10T07:06:04;1.25;;;0.73;;
6775;SDS011;3425;51.376;5.222;2023-05-10T07:08:41;0.40;;;0.40;;
6775;SDS011;3425;51.376;5.222;2023-05-10T07:11:08;1.75;;;0.88;;
6775;SDS011;3425;51.376;5.222;2023-05-10T07:13:36;0.45;;;0.45;;
6775;SDS011;3425;51.376;5.222;2023-05-10T07:16:05;0.85;;;0.82;;
6775;SDS011;3425;51.376;5.222;2023-05-10T07:18:32;1.30;;;0.68;;
6775;SDS011;3425;51.376;5.222;2023-05-10T07:21:00;0.28;;;0.28;;
6775;SDS011;3425;51.376;5.222;2023-05-10T07:23:27;0.90;;;0.70;;
6775;SDS011;3425;51.376;5.222;2023-05-10T07:25:55;0.98;;;0.47;;
6775;SDS011;3425;51.376;5.222;2023-05-10T07:28:23;1.65;;;1.08;;
6775;SDS011;3425;51.376;5.222;2023-05-10T07:30:50;0.50;;;0.50;;
6775;SDS011;3425;51.376;5.222;2023-05-10T07:33:17;0.43;;;0.43;;
6775;SDS011;3425;51.376;5.222;2023-05-10T07:35:45;2.00;;;0.88;;
6775;SDS011;3425;51.376;5.222;2023-05-10T07:38:12;0.45;;;0.45;;
6775;SDS011;3425;51.376;5.222;2023-05-10T07:40:39;0.45;;;0.45;;
6775;SDS011;3425;51.376;5.222;2023-05-10T07:43:06;0.70;;;0.70;;
6775;SDS011;3425;51.376;5.222;2023-05-10T07:45:33;3.15;;;1.33;;
6775;SDS011;3425;51.376;5.222;2023-05-10T07:48:01;0.63;;;0.63;;
6775;SDS011;3425;51.376;5.222;2023-05-10T07:50:28;2.20;;;1.83;;
6775;SDS011;3425;51.376;5.222;2023-05-10T07:52:56;0.57;;;0.57;;
6775;SDS011;3425;51.376;5.222;2023-05-10T07:55:23;1.73;;;1.30;;
6775;SDS011;3425;51.376;5.222;2023-05-10T07:57:50;0.45;;;0.45;;
6775;SDS011;3425;51.376;5.222;2023-05-10T08:00:18;0.80;;;0.50;;
6775;SDS011;3425;51.376;5.222;2023-05-10T08:02:46;0.75;;;0.63;;
6775;SDS011;3425;51.376;5.222;2023-05-10T08:05:14;0.50;;;0.50;;
6775;SDS011;3425;51.376;5.222;2023-05-10T08:07:41;1.77;;;0.98;;
6775;SDS011;3425;51.376;5.222;2023-05-10T08:10:09;2.15;;;0.77;;
6775;SDS011;3425;51.376;5.222;2023-05-10T08:12:37;0.22;;;0.22;;
6775;SDS011;3425;51.376;5.222;2023-05-10T08:15:05;1.10;;;0.75;;
6775;SDS011;3425;51.376;5.222;2023-05-10T08:17:32;1.17;;;0.40;;
6775;SDS011;3425;51.376;5.222;2023-05-10T08:20:00;3.53;;;1.17;;
6775;SDS011;3425;51.376;5.222;2023-05-10T08:22:27;2.47;;;0.95;;
6775;SDS011;3425;51.376;5.222;2023-05-10T08:24:54;1.60;;;0.88;;
6775;SDS011;3425;51.376;5.222;2023-05-10T08:27:22;0.50;;;0.50;;
6775;SDS011;3425;51.376;5.222;2023-05-10T08:29:49;0.40;;;0.40;;
6775;SDS011;3425;51.376;5.222;2023-05-10T08:32:16;0.50;;;0.50;;
6775;SDS011;3425;51.376;5.222;2023-05-10T08:34:44;0.50;;;0.50;;
6775;SDS011;3425;51.376;5.222;2023-05-10T08:37:11;3.53;;;0.40;;
6775;SDS011;3425;51.376;5.222;2023-05-10T08:39:39;0.98;;;0.93;;
6775;SDS011;3425;51.376;5.222;2023-05-10T08:42:07;0.82;;;0.70;;
6775;SDS011;3425;51.376;5.222;2023-05-10T08:44:35;0.82;;;0.22;;
6775;SDS011;3425;51.376;5.222;2023-05-10T08:47:04;1.50;;;0.65;;
6775;SDS011;3425;51.376;5.222;2023-05-10T08:49:32;0.57;;;0.57;;
6775;SDS011;3425;51.376;5.222;2023-05-10T08:52:02;1.10;;;1.00;;
6775;SDS011;3425;51.376;5.222;2023-05-10T08:54:31;0.80;;;0.77;;
6775;SDS011;3425;51.376;5.222;2023-05-10T08:56:58;4.38;;;1.35;;
6775;SDS011;3425;51.376;5.222;2023-05-10T08:59:25;0.80;;;0.68;;
6775;SDS011;3425;51.376;5.222;2023-05-10T09:01:53;0.22;;;0.22;;
6775;SDS011;3425;51.376;5.222;2023-05-10T09:04:21;3.65;;;0.70;;
6775;SDS011;3425;51.376;5.222;2023-05-10T09:06:48;1.00;;;0.90;;
6775;SDS011;3425;51.376;5.222;2023-05-10T09:09:15;0.77;;;0.77;;
6775;SDS011;3425;51.376;5.222;2023-05-10T09:11:43;1.05;;;0.85;;
6775;SDS011;3425;51.376;5.222;2023-05-10T09:14:11;1.25;;;0.57;;
6775;SDS011;3425;51.376;5.222;2023-05-10T09:16:39;1.30;;;0.57;;
6775;SDS011;3425;51.376;5.222;2023-05-10T09:19:07;1.52;;;0.82;;
6775;SDS011;3425;51.376;5.222;2023-05-10T09:21:35;0.25;;;0.25;;
6775;SDS011;3425;51.376;5.222;2023-05-10T09:24:06;0.10;;;0.10;;
6775;SDS011;3425;51.376;5.222;2023-05-10T09:26:34;4.65;;;1.23;;
6775;SDS011;3425;51.376;5.222;2023-05-10T09:29:02;1.90;;;0.82;;
6775;SDS011;3425;51.376;5.222;2023-05-10T09:31:45;2.25;;;0.57;;
6775;SDS011;3425;51.376;5.222;2023-05-10T09:34:17;0.82;;;0.82;;
6775;SDS011;3425;51.376;5.222;2023-05-10T09:36:51;0.25;;;0.25;;
6775;SDS011;3425;51.376;5.222;2023-05-10T09:39:19;0.10;;;0.10;;
6775;SDS011;3425;51.376;5.222;2023-05-10T09:41:46;0.10;;;0.10;;
6775;SDS011;3425;51.376;5.222;2023-05-10T09:44:16;0.38;;;0.38;;
6775;SDS011;3425;51.376;5.222;2023-05-10T09:46:50;1.25;;;0.47;;
6775;SDS011;3425;51.376;5.222;2023-05-10T09:49:19;0.25;;;0.25;;
6775;SDS011;3425;51.376;5.222;2023-05-10T09:51:47;0.75;;;0.75;;
6775;SDS011;3425;51.376;5.222;2023-05-10T09:54:15;0.52;;;0.50;;
6775;SDS011;3425;51.376;5.222;2023-05-10T09:56:42;1.00;;;0.95;;
6775;SDS011;3425;51.376;5.222;2023-05-10T09:59:11;0.57;;;0.57;;
6775;SDS011;3425;51.376;5.222;2023-05-10T10:01:38;3.97;;;0.93;;
6775;SDS011;3425;51.376;5.222;2023-05-10T10:04:13;0.68;;;0.68;;
6775;SDS011;3425;51.376;5.222;2023-05-10T10:06:47;1.13;;;1.02;;
6775;SDS011;3425;51.376;5.222;2023-05-10T10:09:24;4.35;;;1.50;;
6775;SDS011;3425;51.376;5.222;2023-05-10T10:11:59;0.57;;;0.43;;
6775;SDS011;3425;51.376;5.222;2023-05-10T10:14:27;1.55;;;0.70;;
6775;SDS011;3425;51.376;5.222;2023-05-10T10:17:01;1.33;;;0.80;;
6775;SDS011;3425;51.376;5.222;2023-05-10T10:19:32;10.57;;;1.23;;
6775;SDS011;3425;51.376;5.222;2023-05-10T10:21:59;3.53;;;2.28;;
6775;SDS011;3425;51.376;5.222;2023-05-10T10:24:26;4.03;;;1.73;;
6775;SDS011;3425;51.376;5.222;2023-05-10T10:26:54;2.38;;;0.80;;
6775;SDS011;3425;51.376;5.222;2023-05-10T10:29:25;2.55;;;1.35;;
6775;SDS011;3425;51.376;5.222;2023-05-10T10:34:27;0.70;;;0.65;;
6775;SDS011;3425;51.376;5.222;2023-05-10T10:36:55;0.10;;;0.10;;
6775;SDS011;3425;51.376;5.222;2023-05-10T10:39:23;4.15;;;0.80;;
6775;SDS011;3425;51.376;5.222;2023-05-10T10:41:54;2.08;;;0.90;;
6775;SDS011;3425;51.376;5.222;2023-05-10T10:49:26;0.50;;;0.40;;
6775;SDS011;3425;51.376;5.222;2023-05-10T10:52:13;0.43;;;0.43;;
6775;SDS011;3425;51.376;5.222;2023-05-10T10:54:41;0.80;;;0.65;;
6775;SDS011;3425;51.376;5.222;2023-05-10T10:57:11;0.25;;;0.20;;
6775;SDS011;3425;51.376;5.222;2023-05-10T10:59:43;3.33;;;1.50;;
6775;SDS011;3425;51.376;5.222;2023-05-10T11:02:31;2.50;;;0.95;;
6775;SDS011;3425;51.376;5.222;2023-05-10T11:04:57;0.77;;;0.77;;
6775;SDS011;3425;51.376;5.222;2023-05-10T11:07:25;3.78;;;1.02;;
6775;SDS011;3425;51.376;5.222;2023-05-10T11:09:53;3.10;;;1.63;;
6775;SDS011;3425;51.376;5.222;2023-05-10T11:12:20;11.73;;;3.03;;
6775;SDS011;3425;51.376;5.222;2023-05-10T11:14:51;1.02;;;0.75;;
6775;SDS011;3425;51.376;5.222;2023-05-10T11:17:37;1.95;;;1.15;;
6775;SDS011;3425;51.376;5.222;2023-05-10T11:20:08;0.43;;;0.43;;
6775;SDS011;3425;51.376;5.222;2023-05-10T11:22:51;2.42;;;1.55;;
6775;SDS011;3425;51.376;5.222;2023-05-10T11:25:19;3.13;;;1.38;;
6775;SDS011;3425;51.376;5.222;2023-05-10T11:27:47;3.33;;;2.00;;
6775;SDS011;3425;51.376;5.222;2023-05-10T11:30:15;4.47;;;1.30;;
6775;SDS011;3425;51.376;5.222;2023-05-10T11:32:43;5.32;;;1.70;;
6775;SDS011;3425;51.376;5.222;2023-05-10T11:35:11;0.63;;;0.63;;
6775;SDS011;3425;51.376;5.222;2023-05-10T11:37:38;8.02;;;1.42;;
6775;SDS011;3425;51.376;5.222;2023-05-10T11:40:09;1.58;;;0.90;;
6775;SDS011;3425;51.376;5.222;2023-05-10T11:42:37;4.57;;;1.05;;
6775;SDS011;3425;51.376;5.222;2023-05-10T11:45:04;3.17;;;1.95;;
6775;SDS011;3425;51.376;5.222;2023-05-10T11:47:32;2.15;;;1.95;;
6775;SDS011;3425;51.376;5.222;2023-05-10T11:50:01;1.40;;;1.15;;
6775;SDS011;3425;51.376;5.222;2023-05-10T11:52:29;4.35;;;0.90;;
6775;SDS011;3425;51.376;5.222;2023-05-10T11:54:57;2.65;;;0.93;;
6775;SDS011;3425;51.376;5.222;2023-05-10T11:57:26;1.48;;;1.33;;
6775;SDS011;3425;51.376;5.222;2023-05-10T11:59:54;2.90;;;1.35;;
6775;SDS011;3425;51.376;5.222;2023-05-10T12:02:21;3.25;;;1.35;;
6775;SDS011;3425;51.376;5.222;2023-05-10T12:04:49;0.77;;;0.68;;
6775;SDS011;3425;51.376;5.222;2023-05-10T12:07:16;1.65;;;1.33;;
6775;SDS011;3425;51.376;5.222;2023-05-10T12:09:44;0.50;;;0.50;;
6775;SDS011;3425;51.376;5.222;2023-05-10T12:12:17;3.30;;;1.92;;
6775;SDS011;3425;51.376;5.222;2023-05-10T12:14:48;0.82;;;0.80;;
6775;SDS011;3425;51.376;5.222;2023-05-10T12:17:15;0.32;;;0.32;;
6775;SDS011;3425;51.376;5.222;2023-05-10T12:19:42;2.72;;;0.45;;
6775;SDS011;3425;51.376;5.222;2023-05-10T12:22:10;3.75;;;1.60;;
6775;SDS011;3425;51.376;5.222;2023-05-10T12:24:37;0.90;;;0.82;;
6775;SDS011;3425;51.376;5.222;2023-05-10T12:27:05;2.45;;;0.82;;
6775;SDS011;3425;51.376;5.222;2023-05-10T12:29:51;0.57;;;0.57;;
6775;SDS011;3425;51.376;5.222;2023-05-10T12:32:18;0.82;;;0.75;;
6775;SDS011;3425;51.376;5.222;2023-05-10T12:34:46;0.60;;;0.60;;
6775;SDS011;3425;51.376;5.222;2023-05-10T12:37:14;0.85;;;0.30;;
6775;SDS011;3425;51.376;5.222;2023-05-10T12:39:42;1.08;;;0.98;;
6775;SDS011;3425;51.376;5.222;2023-05-10T12:42:09;2.75;;;0.52;;
6775;SDS011;3425;51.376;5.222;2023-05-10T12:44:37;2.38;;;0.57;;
6775;SDS011;3425;51.376;5.222;2023-05-10T12:47:04;0.75;;;0.70;;
6775;SDS011;3425;51.376;5.222;2023-05-10T12:49:32;0.30;;;0.30;;
6775;SDS011;3425;51.376;5.222;2023-05-10T12:52:00;1.65;;;0.82;;
6775;SDS011;3425;51.376;5.222;2023-05-10T12:54:27;0.25;;;0.20;;
6775;SDS011;3425;51.376;5.222;2023-05-10T12:56:54;0.75;;;0.35;;
6775;SDS011;3425;51.376;5.222;2023-05-10T12:59:21;0.63;;;0.50;;
6775;SDS011;3425;51.376;5.222;2023-05-10T13:01:49;2.78;;;0.90;;
6775;SDS011;3425;51.376;5.222;2023-05-10T13:04:16;0.47;;;0.47;;
6775;SDS011;3425;51.376;5.222;2023-05-10T13:06:43;1.83;;;1.10;;
6775;SDS011;3425;51.376;5.222;2023-05-10T13:09:10;1.40;;;0.57;;
6775;SDS011;3425;51.376;5.222;2023-05-10T13:11:37;3.50;;;0.40;;
6775;SDS011;3425;51.376;5.222;2023-05-10T13:14:04;0.52;;;0.52;;
6775;SDS011;3425;51.376;5.222;2023-05-10T13:16:31;0.95;;;0.73;;
6775;SDS011;3425;51.376;5.222;2023-05-10T13:18:59;0.80;;;0.80;;
6775;SDS011;3425;51.376;5.222;2023-05-10T13:21:26;7.47;;;1.20;;
6775;SDS011;3425;51.376;5.222;2023-05-10T13:23:56;0.85;;;0.85;;
6775;SDS011;3425;51.376;5.222;2023-05-10T13:26:24;1.30;;;0.80;;
6775;SDS011;3425;51.376;5.222;2023-05-10T13:28:51;2.05;;;0.63;;
6775;SDS011;3425;51.376;5.222;2023-05-10T13:31:18;2.15;;;1.45;;
6775;SDS011;3425;51.376;5.222;2023-05-10T13:33:46;0.70;;;0.70;;
6775;SDS011;3425;51.376;5.222;2023-05-10T13:36:13;1.55;;;0.73;;
6775;SDS011;3425;51.376;5.222;2023-05-10T13:38:41;0.52;;;0.52;;
6775;SDS011;3425;51.376;5.222;2023-05-10T13:41:08;0.93;;;0.85;;
6775;SDS011;3425;51.376;5.222;2023-05-10T13:43:35;0.98;;;0.95;;
6775;SDS011;3425;51.376;5.222;2023-05-10T13:46:02;0.40;;;0.40;;
6775;SDS011;3425;51.376;5.222;2023-05-10T13:48:29;8.00;;;0.73;;
6775;SDS011;3425;51.376;5.222;2023-05-10T13:50:56;1.95;;;0.95;;
6775;SDS011;3425;51.376;5.222;2023-05-10T13:53:24;0.45;;;0.45;;
6775;SDS011;3425;51.376;5.222;2023-05-10T13:55:51;1.48;;;1.05;;
6775;SDS011;3425;51.376;5.222;2023-05-10T13:58:18;0.85;;;0.60;;
6775;SDS011;3425;51.376;5.222;2023-05-10T14:00:45;3.85;;;1.13;;
6775;SDS011;3425;51.376;5.222;2023-05-10T14:03:12;1.33;;;0.45;;
6775;SDS011;3425;51.376;5.222;2023-05-10T14:05:40;1.45;;;1.08;;
6775;SDS011;3425;51.376;5.222;2023-05-10T14:08:08;1.77;;;0.95;;
6775;SDS011;3425;51.376;5.222;2023-05-10T14:10:36;0.55;;;0.55;;
6775;SDS011;3425;51.376;5.222;2023-05-10T14:13:04;1.95;;;0.95;;
6775;SDS011;3425;51.376;5.222;2023-05-10T14:15:31;0.75;;;0.57;;
6775;SDS011;3425;51.376;5.222;2023-05-10T14:17:58;2.17;;;1.25;;
6775;SDS011;3425;51.376;5.222;2023-05-10T14:20:26;0.28;;;0.28;;
6775;SDS011;3425;51.376;5.222;2023-05-10T14:22:53;0.88;;;0.57;;
6775;SDS011;3425;51.376;5.222;2023-05-10T14:25:20;1.08;;;0.50;;
6775;SDS011;3425;51.376;5.222;2023-05-10T14:27:48;1.20;;;0.47;;
6775;SDS011;3425;51.376;5.222;2023-05-10T14:30:15;0.88;;;0.45;;
6775;SDS011;3425;51.376;5.222;2023-05-10T14:32:42;0.20;;;0.20;;
6775;SDS011;3425;51.376;5.222;2023-05-10T14:35:09;0.10;;;0.10;;
6775;SDS011;3425;51.376;5.222;2023-05-10T14:37:38;1.63;;;1.40;;
6775;SDS011;3425;51.376;5.222;2023-05-10T14:40:05;0.20;;;0.20;;
6775;SDS011;3425;51.376;5.222;2023-05-10T14:42:33;0.88;;;0.77;;
6775;SDS011;3425;51.376;5.222;2023-05-10T14:45:01;0.65;;;0.50;;
6775;SDS011;3425;51.376;5.222;2023-05-10T14:47:28;0.60;;;0.60;;
6775;SDS011;3425;51.376;5.222;2023-05-10T14:49:55;0.40;;;0.40;;
6775;SDS011;3425;51.376;5.222;2023-05-10T14:52:22;0.93;;;0.32;;
6775;SDS011;3425;51.376;5.222;2023-05-10T14:54:49;1.20;;;0.68;;
6775;SDS011;3425;51.376;5.222;2023-05-10T14:57:16;4.28;;;1.50;;
6775;SDS011;3425;51.376;5.222;2023-05-10T14:59:43;3.13;;;0.80;;
6775;SDS011;3425;51.376;5.222;2023-05-10T15:02:11;1.42;;;1.33;;
6775;SDS011;3425;51.376;5.222;2023-05-10T15:04:39;0.90;;;0.50;;
6775;SDS011;3425;51.376;5.222;2023-05-10T15:07:07;1.65;;;0.52;;
6775;SDS011;3425;51.376;5.222;2023-05-10T15:09:34;0.40;;;0.40;;
6775;SDS011;3425;51.376;5.222;2023-05-10T15:12:01;0.52;;;0.52;;
6775;SDS011;3425;51.376;5.222;2023-05-10T15:14:29;1.77;;;0.70;;
6775;SDS011;3425;51.376;5.222;2023-05-10T15:16:56;0.80;;;0.80;;
6775;SDS011;3425;51.376;5.222;2023-05-10T15:19:23;0.63;;;0.63;;
6775;SDS011;3425;51.376;5.222;2023-05-10T15:21:50;1.10;;;0.55;;
6775;SDS011;3425;51.376;5.222;2023-05-10T15:24:17;0.98;;;0.60;;
6775;SDS011;3425;51.376;5.222;2023-05-10T15:26:45;1.20;;;1.02;;
6775;SDS011;3425;51.376;5.222;2023-05-10T15:29:12;0.28;;;0.28;;
6775;SDS011;3425;51.376;5.222;2023-05-10T15:31:47;1.40;;;1.30;;
6775;SDS011;3425;51.376;5.222;2023-05-10T15:34:14;0.57;;;0.57;;
6775;SDS011;3425;51.376;5.222;2023-05-10T15:36:41;0.73;;;0.30;;
6775;SDS011;3425;51.376;5.222;2023-05-10T15:39:08;0.32;;;0.32;;
6775;SDS011;3425;51.376;5.222;2023-05-10T15:41:36;0.55;;;0.55;;
6775;SDS011;3425;51.376;5.222;2023-05-10T15:44:03;0.98;;;0.95;;
6775;SDS011;3425;51.376;5.222;2023-05-10T15:46:30;3.03;;;1.48;;